sensor_id;sensor_type;location;lat;lon;timestamp;pressure;altitude;pressure_sealevel;temperature;humidity
71567;BME280;59403;47.456;19.120;2023-04-23T00:01:48;100172.22;;;9.76;86.28
71567;BME280;59403;47.456;19.120;2023-04-23T00:04:15;100171.38;;;9.75;86.39
71567;BME280;59403;47.456;19.120;2023-04-23T00:06:45;100167.62;;;9.78;86.67
71567;BME280;59403;47.456;19.120;2023-04-23T00:09:14;100173.41;;;9.81;85.12
71567;BME280;59403;47.456;19.120;2023-04-23T00:11:42;100171.38;;;9.75;85.83
71567;BME280;59403;47.456;19.120;2023-04-23T00:14:09;100169.37;;;9.69;86.49
71567;BME280;59403;47.456;19.120;2023-04-23T00:16:38;100169.47;;;9.60;85.85
71567;BME280;59403;47.456;19.120;2023-04-23T00:19:05;100165.03;;;9.60;85.98
71567;BME280;59403;47.456;19.120;2023-04-23T00:21:32;100161.53;;;9.60;86.38
71567;BME280;59403;47.456;19.120;2023-04-23T00:23:59;100163.50;;;9.58;86.07
71567;BME280;59403;47.456;19.120;2023-04-23T00:26:27;100159.03;;;9.50;86.57
71567;BME280;59403;47.456;19.120;2023-04-23T00:28:54;100153.50;;;9.44;86.25
71567;BME280;59403;47.456;19.120;2023-04-23T00:31:21;100155.87;;;9.47;86.35
71567;BME280;59403;47.456;19.120;2023-04-23T00:33:48;100158.78;;;9.44;86.90
71567;BME280;59403;47.456;19.120;2023-04-23T00:36:16;100161.25;;;9.37;86.71
71567;BME280;59403;47.456;19.120;2023-04-23T00:38:43;100156.94;;;9.36;86.16
71567;BME280;59403;47.456;19.120;2023-04-23T00:41:10;100160.56;;;9.35;86.75
71567;BME280;59403;47.456;19.120;2023-04-23T00:43:38;100156.28;;;9.34;86.56
71567;BME280;59403;47.456;19.120;2023-04-23T00:46:06;100160.88;;;9.32;87.05
71567;BME280;59403;47.456;19.120;2023-04-23T00:48:33;100153.94;;;9.31;87.62
71567;BME280;59403;47.456;19.120;2023-04-23T00:51:03;100148.28;;;9.26;87.81
71567;BME280;59403;47.456;19.120;2023-04-23T00:53:30;100162.44;;;9.17;88.15
71567;BME280;59403;47.456;19.120;2023-04-23T00:55:58;100152.97;;;9.14;87.79
71567;BME280;59403;47.456;19.120;2023-04-23T00:58:27;100150.88;;;9.18;87.62
71567;BME280;59403;47.456;19.120;2023-04-23T01:04:18;100140.09;;;9.11;88.31
71567;BME280;59403;47.456;19.120;2023-04-23T01:06:50;100147.50;;;9.08;88.29
71567;BME280;59403;47.456;19.120;2023-04-23T01:09:18;100152.31;;;9.12;87.58
71567;BME280;59403;47.456;19.120;2023-04-23T01:11:46;100148.84;;;9.12;87.92
71567;BME280;59403;47.456;19.120;2023-04-23T01:14:14;100152.03;;;8.98;89.05
71567;BME280;59403;47.456;19.120;2023-04-23T01:16:41;100149.16;;;8.91;89.21
71567;BME280;59403;47.456;19.120;2023-04-23T01:19:09;100151.72;;;9.01;88.33
71567;BME280;59403;47.456;19.120;2023-04-23T01:21:38;100146.22;;;8.94;89.61
71567;BME280;59403;47.456;19.120;2023-04-23T01:24:08;100146.66;;;8.90;89.89
71567;BME280;59403;47.456;19.120;2023-04-23T01:26:37;100148.09;;;8.84;90.00
71567;BME280;59403;47.456;19.120;2023-04-23T01:29:04;100151.00;;;8.91;90.06
71567;BME280;59403;47.456;19.120;2023-04-23T01:31:31;100157.38;;;8.88;89.87
71567;BME280;59403;47.456;19.120;2023-04-23T01:33:59;100152.47;;;8.76;90.60
71567;BME280;59403;47.456;19.120;2023-04-23T01:36:29;100153.31;;;8.76;90.02
71567;BME280;59403;47.456;19.120;2023-04-23T01:38:56;100153.16;;;8.78;90.21
71567;BME280;59403;47.456;19.120;2023-04-23T01:41:26;100149.31;;;8.72;89.86
71567;BME280;59403;47.456;19.120;2023-04-23T01:43:54;100151.44;;;8.69;90.28
71567;BME280;59403;47.456;19.120;2023-04-23T01:46:21;100144.72;;;8.74;89.93
71567;BME280;59403;47.456;19.120;2023-04-23T01:51:17;100144.34;;;8.69;90.19
71567;BME280;59403;47.456;19.120;2023-04-23T01:53:43;100141.56;;;8.71;89.61
71567;BME280;59403;47.456;19.120;2023-04-23T01:56:10;100142.69;;;8.68;90.75
71567;BME280;59403;47.456;19.120;2023-04-23T01:58:39;100135.06;;;8.65;90.07
71567;BME280;59403;47.456;19.120;2023-04-23T02:01:06;100138.84;;;8.63;90.79
71567;BME280;59403;47.456;19.120;2023-04-23T02:03:33;100139.16;;;8.60;90.83
71567;BME280;59403;47.456;19.120;2023-04-23T02:06:00;100138.91;;;8.53;90.86
71567;BME280;59403;47.456;19.120;2023-04-23T02:08:30;100135.69;;;8.59;90.64
71567;BME280;59403;47.456;19.120;2023-04-23T02:10:57;100133.56;;;8.45;91.86
71567;BME280;59403;47.456;19.120;2023-04-23T02:13:32;100128.59;;;8.42;91.79
71567;BME280;59403;47.456;19.120;2023-04-23T02:16:16;100134.81;;;8.41;92.51
71567;BME280;59403;47.456;19.120;2023-04-23T02:18:44;100132.28;;;8.49;91.88
71567;BME280;59403;47.456;19.120;2023-04-23T02:21:11;100136.56;;;8.50;91.37
71567;BME280;59403;47.456;19.120;2023-04-23T02:23:38;100134.56;;;8.44;91.77
71567;BME280;59403;47.456;19.120;2023-04-23T02:26:05;100136.50;;;8.42;92.95
71567;BME280;59403;47.456;19.120;2023-04-23T02:28:37;100130.91;;;8.45;91.49
71567;BME280;59403;47.456;19.120;2023-04-23T02:31:04;100131.13;;;8.34;92.45
71567;BME280;59403;47.456;19.120;2023-04-23T02:33:32;100135.59;;;8.34;91.84
71567;BME280;59403;47.456;19.120;2023-04-23T02:36:00;100132.41;;;8.30;92.82
71567;BME280;59403;47.456;19.120;2023-04-23T02:38:27;100130.75;;;8.29;92.58
71567;BME280;59403;47.456;19.120;2023-04-23T02:40:53;100132.44;;;8.21;93.40
71567;BME280;59403;47.456;19.120;2023-04-23T02:43:20;100128.72;;;8.14;93.95
71567;BME280;59403;47.456;19.120;2023-04-23T02:45:47;100133.62;;;8.08;94.31
71567;BME280;59403;47.456;19.120;2023-04-23T02:48:14;100132.06;;;8.16;93.01
71567;BME280;59403;47.456;19.120;2023-04-23T02:50:42;100128.03;;;8.12;93.54
71567;BME280;59403;47.456;19.120;2023-04-23T02:53:15;100128.97;;;8.20;93.39
71567;BME280;59403;47.456;19.120;2023-04-23T02:55:49;100123.69;;;8.20;94.02
71567;BME280;59403;47.456;19.120;2023-04-23T02:58:30;100122.56;;;8.23;93.03
71567;BME280;59403;47.456;19.120;2023-04-23T03:01:05;100120.66;;;8.25;92.18
71567;BME280;59403;47.456;19.120;2023-04-23T03:03:41;100123.44;;;8.14;93.45
71567;BME280;59403;47.456;19.120;2023-04-23T03:06:21;100121.31;;;7.99;94.99
71567;BME280;59403;47.456;19.120;2023-04-23T03:08:47;100118.13;;;7.96;94.86
71567;BME280;59403;47.456;19.120;2023-04-23T03:11:14;100120.09;;;7.94;95.10
71567;BME280;59403;47.456;19.120;2023-04-23T03:13:41;100114.00;;;7.93;95.05
71567;BME280;59403;47.456;19.120;2023-04-23T03:16:08;100125.50;;;7.92;95.22
71567;BME280;59403;47.456;19.120;2023-04-23T03:18:35;100118.87;;;7.88;95.55
71567;BME280;59403;47.456;19.120;2023-04-23T03:21:03;100122.72;;;7.94;94.81
71567;BME280;59403;47.456;19.120;2023-04-23T03:23:31;100117.91;;;7.89;95.99
71567;BME280;59403;47.456;19.120;2023-04-23T03:25:58;100116.25;;;7.88;95.86
71567;BME280;59403;47.456;19.120;2023-04-23T03:28:25;100110.88;;;7.80;96.41
71567;BME280;59403;47.456;19.120;2023-04-23T03:30:52;100109.38;;;7.78;96.12
71567;BME280;59403;47.456;19.120;2023-04-23T03:33:18;100115.41;;;7.88;95.40
71567;BME280;59403;47.456;19.120;2023-04-23T03:35:45;100116.97;;;7.81;95.90
71567;BME280;59403;47.456;19.120;2023-04-23T03:38:12;100121.63;;;7.69;96.35
71567;BME280;59403;47.456;19.120;2023-04-23T03:40:41;100120.06;;;7.76;95.39
71567;BME280;59403;47.456;19.120;2023-04-23T03:43:07;100119.91;;;7.78;95.41
71567;BME280;59403;47.456;19.120;2023-04-23T03:45:34;100126.84;;;7.79;95.65
71567;BME280;59403;47.456;19.120;2023-04-23T03:48:01;100126.69;;;7.80;96.29
71567;BME280;59403;47.456;19.120;2023-04-23T03:50:28;100126.84;;;7.79;96.28
71567;BME280;59403;47.456;19.120;2023-04-23T03:52:59;100126.28;;;7.75;96.69
71567;BME280;59403;47.456;19.120;2023-04-23T03:55:26;100128.69;;;7.69;97.33
71567;BME280;59403;47.456;19.120;2023-04-23T03:57:54;100132.25;;;7.77;96.60
71567;BME280;59403;47.456;19.120;2023-04-23T04:00:21;100135.72;;;7.78;96.64
71567;BME280;59403;47.456;19.120;2023-04-23T04:02:48;100132.97;;;7.70;97.41
71567;BME280;59403;47.456;19.120;2023-04-23T04:05:15;100142.69;;;7.69;97.26
71567;BME280;59403;47.456;19.120;2023-04-23T04:07:42;100135.72;;;7.78;96.97
71567;BME280;59403;47.456;19.120;2023-04-23T04:10:09;100140.94;;;7.87;96.04
71567;BME280;59403;47.456;19.120;2023-04-23T04:12:36;100138.50;;;7.76;97.32
71567;BME280;59403;47.456;19.120;2023-04-23T04:15:06;100138.75;;;7.83;97.11
71567;BME280;59403;47.456;19.120;2023-04-23T04:17:33;100132.94;;;7.79;97.63
71567;BME280;59403;47.456;19.120;2023-04-23T04:20:00;100137.06;;;7.82;97.43
71567;BME280;59403;47.456;19.120;2023-04-23T04:22:28;100141.63;;;7.89;96.73
71567;BME280;59403;47.456;19.120;2023-04-23T04:24:55;100139.38;;;7.94;97.12
71567;BME280;59403;47.456;19.120;2023-04-23T04:27:21;100148.66;;;7.98;96.61
71567;BME280;59403;47.456;19.120;2023-04-23T04:29:48;100155.31;;;8.02;96.13
71567;BME280;59403;47.456;19.120;2023-04-23T04:32:17;100153.78;;;8.00;97.06
71567;BME280;59403;47.456;19.120;2023-04-23T04:34:44;100157.41;;;7.99;97.73
71567;BME280;59403;47.456;19.120;2023-04-23T04:37:11;100149.22;;;8.02;97.16
71567;BME280;59403;47.456;19.120;2023-04-23T04:39:38;100149.25;;;8.20;97.54
71567;BME280;59403;47.456;19.120;2023-04-23T04:42:05;100149.47;;;8.36;96.38
71567;BME280;59403;47.456;19.120;2023-04-23T04:44:32;100150.06;;;8.47;96.41
71567;BME280;59403;47.456;19.120;2023-04-23T04:47:01;100154.84;;;8.61;96.04
71567;BME280;59403;47.456;19.120;2023-04-23T04:49:30;100160.19;;;8.87;95.13
71567;BME280;59403;47.456;19.120;2023-04-23T04:51:57;100164.25;;;8.99;94.28
71567;BME280;59403;47.456;19.120;2023-04-23T04:54:23;100163.03;;;9.11;93.53
71567;BME280;59403;47.456;19.120;2023-04-23T04:56:50;100160.62;;;9.43;93.14
71567;BME280;59403;47.456;19.120;2023-04-23T04:59:17;100164.75;;;10.05;90.35
71567;BME280;59403;47.456;19.120;2023-04-23T05:01:44;100167.28;;;10.56;88.13
71567;BME280;59403;47.456;19.120;2023-04-23T05:04:12;100167.75;;;10.52;87.99
71567;BME280;59403;47.456;19.120;2023-04-23T05:06:40;100165.22;;;10.34;88.64
71567;BME280;59403;47.456;19.120;2023-04-23T05:09:07;100165.19;;;10.18;89.58
71567;BME280;59403;47.456;19.120;2023-04-23T05:11:35;100159.22;;;10.16;90.04
71567;BME280;59403;47.456;19.120;2023-04-23T05:14:02;100165.31;;;10.16;90.17
71567;BME280;59403;47.456;19.120;2023-04-23T05:16:29;100170.22;;;10.45;88.76
71567;BME280;59403;47.456;19.120;2023-04-23T05:18:56;100169.22;;;10.38;89.22
71567;BME280;59403;47.456;19.120;2023-04-23T05:21:23;100172.34;;;10.42;88.46
71567;BME280;59403;47.456;19.120;2023-04-23T05:23:53;100180.19;;;10.59;86.19
71567;BME280;59403;47.456;19.120;2023-04-23T05:26:20;100175.91;;;10.66;84.94
71567;BME280;59403;47.456;19.120;2023-04-23T05:28:47;100169.13;;;10.88;83.91
71567;BME280;59403;47.456;19.120;2023-04-23T05:31:13;100180.56;;;11.12;81.58
71567;BME280;59403;47.456;19.120;2023-04-23T05:33:40;100173.75;;;11.66;79.53
71567;BME280;59403;47.456;19.120;2023-04-23T05:36:09;100170.88;;;12.61;75.14
71567;BME280;59403;47.456;19.120;2023-04-23T05:38:37;100174.72;;;12.58;73.65
71567;BME280;59403;47.456;19.120;2023-04-23T05:41:05;100164.28;;;12.18;74.96
71567;BME280;59403;47.456;19.120;2023-04-23T05:43:32;100165.50;;;12.69;72.95
71567;BME280;59403;47.456;19.120;2023-04-23T05:45:59;100160.47;;;13.05;70.36
71567;BME280;59403;47.456;19.120;2023-04-23T05:48:27;100167.72;;;13.11;69.57
71567;BME280;59403;47.456;19.120;2023-04-23T05:50:54;100167.66;;;13.19;67.93
71567;BME280;59403;47.456;19.120;2023-04-23T05:53:21;100170.72;;;13.30;67.72
71567;BME280;59403;47.456;19.120;2023-04-23T05:55:48;100176.69;;;13.32;67.70
71567;BME280;59403;47.456;19.120;2023-04-23T05:58:16;100170.53;;;13.32;66.55
71567;BME280;59403;47.456;19.120;2023-04-23T06:00:43;100176.50;;;13.34;65.58
71567;BME280;59403;47.456;19.120;2023-04-23T06:03:10;100170.66;;;13.38;65.67
71567;BME280;59403;47.456;19.120;2023-04-23T06:05:37;100178.81;;;13.37;66.44
71567;BME280;59403;47.456;19.120;2023-04-23T06:08:04;100186.37;;;13.48;65.19
71567;BME280;59403;47.456;19.120;2023-04-23T06:10:31;100178.66;;;13.53;64.89
71567;BME280;59403;47.456;19.120;2023-04-23T06:12:58;100181.22;;;13.61;64.80
71567;BME280;59403;47.456;19.120;2023-04-23T06:15:26;100180.53;;;13.67;64.82
71567;BME280;59403;47.456;19.120;2023-04-23T06:17:53;100183.84;;;13.69;58.69
71567;BME280;59403;47.456;19.120;2023-04-23T06:22:48;100188.06;;;13.93;60.50
71567;BME280;59403;47.456;19.120;2023-04-23T06:25:15;100185.03;;;13.96;60.86
71567;BME280;59403;47.456;19.120;2023-04-23T06:27:42;100184.28;;;14.02;59.95
71567;BME280;59403;47.456;19.120;2023-04-23T06:30:09;100181.78;;;14.15;60.25
71567;BME280;59403;47.456;19.120;2023-04-23T06:32:37;100187.84;;;14.23;56.49
71567;BME280;59403;47.456;19.120;2023-04-23T06:35:05;100183.91;;;14.48;57.23
71567;BME280;59403;47.456;19.120;2023-04-23T06:37:32;100183.13;;;14.54;58.34
71567;BME280;59403;47.456;19.120;2023-04-23T06:39:59;100186.72;;;14.61;58.27
71567;BME280;59403;47.456;19.120;2023-04-23T06:42:26;100188.06;;;14.72;56.28
71567;BME280;59403;47.456;19.120;2023-04-23T06:44:53;100193.56;;;14.85;54.20
71567;BME280;59403;47.456;19.120;2023-04-23T06:47:20;100190.69;;;14.87;56.41
71567;BME280;59403;47.456;19.120;2023-04-23T06:49:49;100183.66;;;15.00;55.98
71567;BME280;59403;47.456;19.120;2023-04-23T06:52:16;100185.87;;;15.18;55.20
71567;BME280;59403;47.456;19.120;2023-04-23T06:54:43;100179.37;;;15.27;53.92
71567;BME280;59403;47.456;19.120;2023-04-23T06:57:10;100187.31;;;15.41;53.51
71567;BME280;59403;47.456;19.120;2023-04-23T06:59:37;100177.91;;;15.45;53.17
71567;BME280;59403;47.456;19.120;2023-04-23T07:02:04;100181.16;;;15.62;53.09
71567;BME280;59403;47.456;19.120;2023-04-23T07:04:31;100176.47;;;15.70;53.22
71567;BME280;59403;47.456;19.120;2023-04-23T07:07:00;100179.63;;;15.80;52.66
71567;BME280;59403;47.456;19.120;2023-04-23T07:09:27;100176.81;;;15.95;52.30
71567;BME280;59403;47.456;19.120;2023-04-23T07:11:54;100181.84;;;16.11;51.26
71567;BME280;59403;47.456;19.120;2023-04-23T07:14:21;100173.69;;;16.19;49.37
71567;BME280;59403;47.456;19.120;2023-04-23T07:16:48;100183.63;;;16.38;51.38
71567;BME280;59403;47.456;19.120;2023-04-23T07:19:16;100185.50;;;16.44;49.94
71567;BME280;59403;47.456;19.120;2023-04-23T07:21:43;100180.97;;;16.38;50.30
71567;BME280;59403;47.456;19.120;2023-04-23T07:24:11;100179.84;;;16.67;47.49
71567;BME280;59403;47.456;19.120;2023-04-23T07:26:38;100168.16;;;16.74;49.16
71567;BME280;59403;47.456;19.120;2023-04-23T07:29:05;100176.75;;;16.70;48.77
71567;BME280;59403;47.456;19.120;2023-04-23T07:31:34;100169.41;;;16.91;48.79
71567;BME280;59403;47.456;19.120;2023-04-23T07:34:02;100174.38;;;17.08;47.65
71567;BME280;59403;47.456;19.120;2023-04-23T07:36:32;100170.09;;;17.13;45.73
71567;BME280;59403;47.456;19.120;2023-04-23T07:38:59;100175.22;;;17.15;45.63
71567;BME280;59403;47.456;19.120;2023-04-23T07:41:27;100164.09;;;17.18;48.29
71567;BME280;59403;47.456;19.120;2023-04-23T07:43:54;100169.69;;;17.36;45.39
71567;BME280;59403;47.456;19.120;2023-04-23T07:46:21;100167.81;;;17.62;45.24
71567;BME280;59403;47.456;19.120;2023-04-23T07:48:47;100168.88;;;17.61;42.43
71567;BME280;59403;47.456;19.120;2023-04-23T07:51:14;100170.69;;;17.87;42.59
71567;BME280;59403;47.456;19.120;2023-04-23T07:53:41;100172.09;;;17.96;41.31
71567;BME280;59403;47.456;19.120;2023-04-23T07:56:08;100173.22;;;18.26;43.67
71567;BME280;59403;47.456;19.120;2023-04-23T07:58:37;100163.75;;;18.30;42.51
71567;BME280;59403;47.456;19.120;2023-04-23T08:01:04;100170.09;;;18.42;43.18
71567;BME280;59403;47.456;19.120;2023-04-23T08:03:31;100167.03;;;18.32;39.76
71567;BME280;59403;47.456;19.120;2023-04-23T08:05:58;100170.31;;;18.41;40.96
71567;BME280;59403;47.456;19.120;2023-04-23T08:08:29;100167.56;;;18.60;41.73
71567;BME280;59403;47.456;19.120;2023-04-23T08:10:56;100173.94;;;18.66;40.87
71567;BME280;59403;47.456;19.120;2023-04-23T08:13:22;100171.25;;;18.59;40.95
71567;BME280;59403;47.456;19.120;2023-04-23T08:15:51;100167.47;;;18.73;41.21
71567;BME280;59403;47.456;19.120;2023-04-23T08:18:18;100166.75;;;18.91;41.64
71567;BME280;59403;47.456;19.120;2023-04-23T08:20:44;100162.66;;;19.13;41.79
71567;BME280;59403;47.456;19.120;2023-04-23T08:23:12;100167.47;;;19.11;40.94
71567;BME280;59403;47.456;19.120;2023-04-23T08:25:38;100163.84;;;19.23;42.37
71567;BME280;59403;47.456;19.120;2023-04-23T08:28:05;100164.44;;;19.25;40.52
71567;BME280;59403;47.456;19.120;2023-04-23T08:30:33;100165.97;;;19.15;42.19
71567;BME280;59403;47.456;19.120;2023-04-23T08:33:01;100164.12;;;19.15;43.66
71567;BME280;59403;47.456;19.120;2023-04-23T08:35:28;100154.09;;;19.29;41.73
71567;BME280;59403;47.456;19.120;2023-04-23T08:37:55;100153.09;;;19.23;41.30
71567;BME280;59403;47.456;19.120;2023-04-23T08:40:22;100153.13;;;19.48;39.75
71567;BME280;59403;47.456;19.120;2023-04-23T08:42:50;100143.03;;;19.68;40.17
71567;BME280;59403;47.456;19.120;2023-04-23T08:45:20;100145.94;;;19.67;40.61
71567;BME280;59403;47.456;19.120;2023-04-23T08:47:47;100140.84;;;19.59;38.80
71567;BME280;59403;47.456;19.120;2023-04-23T08:50:17;100147.12;;;19.71;39.01
71567;BME280;59403;47.456;19.120;2023-04-23T08:52:47;100138.09;;;19.65;38.60
71567;BME280;59403;47.456;19.120;2023-04-23T08:55:15;100144.31;;;19.84;39.28
71567;BME280;59403;47.456;19.120;2023-04-23T08:57:44;100135.00;;;20.04;38.44
71567;BME280;59403;47.456;19.120;2023-04-23T09:00:13;100129.47;;;20.17;39.77
71567;BME280;59403;47.456;19.120;2023-04-23T09:02:41;100132.00;;;20.30;39.10
71567;BME280;59403;47.456;19.120;2023-04-23T09:05:09;100128.63;;;20.35;39.34
71567;BME280;59403;47.456;19.120;2023-04-23T09:07:38;100131.91;;;20.55;37.81
71567;BME280;59403;47.456;19.120;2023-04-23T09:10:07;100122.37;;;20.71;35.32
71567;BME280;59403;47.456;19.120;2023-04-23T09:12:35;100125.84;;;20.71;37.97
71567;BME280;59403;47.456;19.120;2023-04-23T09:15:03;100129.19;;;20.85;37.42
71567;BME280;59403;47.456;19.120;2023-04-23T09:17:37;100104.59;;;20.81;38.04
71567;BME280;59403;47.456;19.120;2023-04-23T09:20:05;100119.34;;;20.90;36.34
71567;BME280;59403;47.456;19.120;2023-04-23T09:22:42;100118.00;;;20.99;37.86
71567;BME280;59403;47.456;19.120;2023-04-23T09:25:12;100121.78;;;20.98;35.72
71567;BME280;59403;47.456;19.120;2023-04-23T09:27:40;100119.56;;;20.77;36.15
71567;BME280;59403;47.456;19.120;2023-04-23T09:30:08;100124.50;;;21.21;36.04
71567;BME280;59403;47.456;19.120;2023-04-23T09:32:36;100122.25;;;21.18;36.42
71567;BME280;59403;47.456;19.120;2023-04-23T09:35:04;100110.34;;;21.26;37.08
71567;BME280;59403;47.456;19.120;2023-04-23T09:37:32;100115.59;;;21.32;37.37
71567;BME280;59403;47.456;19.120;2023-04-23T09:40:01;100112.09;;;21.43;34.37
71567;BME280;59403;47.456;19.120;2023-04-23T09:42:29;100105.03;;;21.08;37.14
71567;BME280;59403;47.456;19.120;2023-04-23T09:45:01;100106.69;;;21.32;35.62
71567;BME280;59403;47.456;19.120;2023-04-23T09:47:31;100105.44;;;21.58;36.14
71567;BME280;59403;47.456;19.120;2023-04-23T09:49:59;100104.50;;;21.40;36.13
71567;BME280;59403;47.456;19.120;2023-04-23T09:52:27;100107.41;;;21.51;35.17
71567;BME280;59403;47.456;19.120;2023-04-23T09:54:57;100105.66;;;21.56;34.91
71567;BME280;59403;47.456;19.120;2023-04-23T09:57:25;100107.75;;;21.66;34.08
71567;BME280;59403;47.456;19.120;2023-04-23T09:59:55;100102.72;;;21.58;33.84
71567;BME280;59403;47.456;19.120;2023-04-23T10:02:26;100099.66;;;21.66;33.21
71567;BME280;59403;47.456;19.120;2023-04-23T10:04:53;100096.41;;;21.87;34.87
71567;BME280;59403;47.456;19.120;2023-04-23T10:07:21;100097.13;;;21.82;32.49
71567;BME280;59403;47.456;19.120;2023-04-23T10:09:48;100080.78;;;21.77;32.75
71567;BME280;59403;47.456;19.120;2023-04-23T10:12:16;100078.31;;;21.99;31.52
71567;BME280;59403;47.456;19.120;2023-04-23T10:14:45;100076.25;;;22.17;32.84
71567;BME280;59403;47.456;19.120;2023-04-23T10:17:14;100076.97;;;22.13;31.50
71567;BME280;59403;47.456;19.120;2023-04-23T10:19:41;100071.75;;;21.95;30.50
71567;BME280;59403;47.456;19.120;2023-04-23T10:22:09;100073.06;;;21.92;30.52
71567;BME280;59403;47.456;19.120;2023-04-23T10:24:39;100076.97;;;22.13;30.51
71567;BME280;59403;47.456;19.120;2023-04-23T10:27:14;100069.28;;;22.05;29.31
71567;BME280;59403;47.456;19.120;2023-04-23T10:29:44;100073.59;;;22.06;28.83
71567;BME280;59403;47.456;19.120;2023-04-23T10:32:14;100063.25;;;22.14;28.95
71567;BME280;59403;47.456;19.120;2023-04-23T10:34:42;100059.72;;;22.42;30.08
71567;BME280;59403;47.456;19.120;2023-04-23T10:37:09;100057.81;;;22.26;30.23
71567;BME280;59403;47.456;19.120;2023-04-23T10:39:37;100057.66;;;22.61;31.75
71567;BME280;59403;47.456;19.120;2023-04-23T10:42:04;100057.87;;;22.71;29.60
71567;BME280;59403;47.456;19.120;2023-04-23T10:44:33;100055.62;;;22.68;29.93
71567;BME280;59403;47.456;19.120;2023-04-23T10:47:05;100052.12;;;22.39;29.31
71567;BME280;59403;47.456;19.120;2023-04-23T10:49:34;100058.22;;;22.34;29.32
71567;BME280;59403;47.456;19.120;2023-04-23T10:52:07;100042.00;;;22.46;29.79
71567;BME280;59403;47.456;19.120;2023-04-23T10:54:40;100044.53;;;22.81;30.50
71567;BME280;59403;47.456;19.120;2023-04-23T10:57:08;100045.44;;;22.13;27.55
71567;BME280;59403;47.456;19.120;2023-04-23T10:59:38;100042.47;;;22.55;29.34
71567;BME280;59403;47.456;19.120;2023-04-23T11:02:08;100038.94;;;22.54;29.03
71567;BME280;59403;47.456;19.120;2023-04-23T11:04:40;100042.47;;;22.71;28.57
71567;BME280;59403;47.456;19.120;2023-04-23T11:07:09;100021.09;;;22.25;28.50
71567;BME280;59403;47.456;19.120;2023-04-23T11:09:38;100033.37;;;22.61;29.95
71567;BME280;59403;47.456;19.120;2023-04-23T11:12:07;100037.53;;;22.51;29.08
71567;BME280;59403;47.456;19.120;2023-04-23T11:14:40;100036.16;;;22.99;29.40
71567;BME280;59403;47.456;19.120;2023-04-23T11:17:10;100027.75;;;23.12;29.01
71567;BME280;59403;47.456;19.120;2023-04-23T11:19:38;100023.16;;;23.29;28.90
71567;BME280;59403;47.456;19.120;2023-04-23T11:22:06;100025.53;;;23.42;29.22
71567;BME280;59403;47.456;19.120;2023-04-23T11:24:39;100027.34;;;23.36;28.86
71567;BME280;59403;47.456;19.120;2023-04-23T11:27:08;99984.59;;;23.17;30.31
71567;BME280;59403;47.456;19.120;2023-04-23T11:29:37;100021.03;;;23.14;27.15
71567;BME280;59403;47.456;19.120;2023-04-23T11:32:05;100016.25;;;23.21;28.19
71567;BME280;59403;47.456;19.120;2023-04-23T11:34:38;100019.41;;;22.97;29.81
71567;BME280;59403;47.456;19.120;2023-04-23T11:37:05;100013.75;;;22.20;29.79
71567;BME280;59403;47.456;19.120;2023-04-23T11:39:35;100019.63;;;21.66;29.92
71567;BME280;59403;47.456;19.120;2023-04-23T11:42:02;100014.25;;;21.55;31.92
71567;BME280;59403;47.456;19.120;2023-04-23T11:44:30;100006.00;;;21.84;29.54
71567;BME280;59403;47.456;19.120;2023-04-23T11:46:59;100006.22;;;22.67;30.65
71567;BME280;59403;47.456;19.120;2023-04-23T11:49:26;100001.69;;;23.06;30.76
71567;BME280;59403;47.456;19.120;2023-04-23T11:51:54;100002.63;;;23.49;30.14
71567;BME280;59403;47.456;19.120;2023-04-23T11:54:26;100001.00;;;23.48;29.66
71567;BME280;59403;47.456;19.120;2023-04-23T11:56:54;99998.56;;;23.47;30.21
71567;BME280;59403;47.456;19.120;2023-04-23T11:59:22;100007.28;;;23.76;31.07
71567;BME280;59403;47.456;19.120;2023-04-23T12:01:52;100007.44;;;23.64;29.52
71567;BME280;59403;47.456;19.120;2023-04-23T12:04:21;99984.16;;;23.85;29.62
71567;BME280;59403;47.456;19.120;2023-04-23T12:06:50;99987.03;;;24.00;28.88
71567;BME280;59403;47.456;19.120;2023-04-23T12:09:20;99987.94;;;23.84;28.48
71567;BME280;59403;47.456;19.120;2023-04-23T12:11:47;99986.91;;;23.90;28.82
71567;BME280;59403;47.456;19.120;2023-04-23T12:14:16;99983.97;;;23.48;28.19
71567;BME280;59403;47.456;19.120;2023-04-23T12:16:46;99984.78;;;23.92;28.17
71567;BME280;59403;47.456;19.120;2023-04-23T12:19:17;99987.31;;;23.00;28.94
71567;BME280;59403;47.456;19.120;2023-04-23T12:21:49;99984.84;;;22.04;29.35
71567;BME280;59403;47.456;19.120;2023-04-23T12:24:20;99989.47;;;21.92;30.76
71567;BME280;59403;47.456;19.120;2023-04-23T12:26:52;99977.13;;;21.96;29.77
71567;BME280;59403;47.456;19.120;2023-04-23T12:29:21;99975.97;;;22.37;31.82
71567;BME280;59403;47.456;19.120;2023-04-23T12:31:48;99964.25;;;22.93;29.34
71567;BME280;59403;47.456;19.120;2023-04-23T12:34:17;99962.44;;;22.98;28.78
71567;BME280;59403;47.456;19.120;2023-04-23T12:36:46;99954.41;;;23.41;29.27
71567;BME280;59403;47.456;19.120;2023-04-23T12:39:22;99953.22;;;23.54;29.46
71567;BME280;59403;47.456;19.120;2023-04-23T12:41:51;99956.56;;;23.61;28.72
71567;BME280;59403;47.456;19.120;2023-04-23T12:44:19;99943.34;;;23.43;28.44
71567;BME280;59403;47.456;19.120;2023-04-23T12:46:49;99942.50;;;23.86;28.91
71567;BME280;59403;47.456;19.120;2023-04-23T12:50:11;99942.06;;;23.72;28.77
71567;BME280;59403;47.456;19.120;2023-04-23T12:52:38;99948.88;;;23.53;28.36
71567;BME280;59403;47.456;19.120;2023-04-23T12:55:05;99945.69;;;23.34;29.07
71567;BME280;59403;47.456;19.120;2023-04-23T12:57:32;99940.28;;;23.34;28.24
71567;BME280;59403;47.456;19.120;2023-04-23T12:59:59;99936.06;;;23.43;28.77